Time;durP1;ratioP1;P1;durP2;ratioP2;P2;SDS_P1;SDS_P2;PMS_P1;PMS_P2;Temp;Humidity;BMP_temperature;BMP_pressure;BME280_temperature;BME280_humidity;BME280_pressure;Samples;Min_cycle;Max_cycle;Signal;HPM_P1;HPM_P2
2023/06/27 00:00:13;;;;;;;9.63;3.40;;;;;;;;;;4924033;28;20047;-80
2023/06/27 00:02:40;;;;;;;12.55;3.70;;;;;;;;;;4909539;29;20411;-78
2023/06/27 00:05:07;;;;;;;6.65;3.10;;;;;;;;;;4898704;29;20047;-78
2023/06/27 00:07:33;;;;;;;7.85;3.25;;;;;;;;;;4927312;28;20052;-79
2023/06/27 00:09:59;;;;;;;6.70;3.90;;;;;;;;;;4909125;29;20111;-79
2023/06/27 00:12:25;;;;;;;9.43;3.55;;;;;;;;;;4908770;29;20047;-79
2023/06/27 00:14:54;;;;;;;6.20;3.42;;;;;;;;;;4909206;29;20055;-79
2023/06/27 00:17:23;;;;;;;7.60;3.40;;;;;;;;;;4923009;28;20097;-78
2023/06/27 00:19:49;;;;;;;9.48;4.10;;;;;;;;;;4912111;29;20063;-79
2023/06/27 00:22:15;;;;;;;8.05;3.47;;;;;;;;;;4907911;28;20094;-79
2023/06/27 00:24:41;;;;;;;8.75;3.53;;;;;;;;;;4922579;28;20086;-79
2023/06/27 00:27:07;;;;;;;6.65;3.28;;;;;;;;;;4911282;29;20039;-79
2023/06/27 00:29:34;;;;;;;9.80;3.25;;;;;;;;;;4904618;28;20059;-78
2023/06/27 00:32:00;;;;;;;8.43;3.22;;;;;;;;;;4919768;28;20756;-78
2023/06/27 00:34:26;;;;;;;12.88;3.47;;;;;;;;;;4904332;29;20054;-79
2023/06/27 00:36:52;;;;;;;6.60;3.10;;;;;;;;;;4906580;29;20076;-78
2023/06/27 00:39:19;;;;;;;8.02;4.00;;;;;;;;;;4903098;28;20587;-79
2023/06/27 00:41:45;;;;;;;7.03;3.45;;;;;;;;;;4923309;28;20039;-77
2023/06/27 00:44:11;;;;;;;11.10;4.20;;;;;;;;;;4904758;28;20058;-78
2023/06/27 00:46:38;;;;;;;6.93;3.05;;;;;;;;;;4905512;29;20559;-78
2023/06/27 00:49:09;;;;;;;9.88;4.00;;;;;;;;;;4910966;29;20055;-78
2023/06/27 00:51:35;;;;;;;10.02;4.75;;;;;;;;;;4892519;28;20047;-79
2023/06/27 00:54:02;;;;;;;13.30;3.53;;;;;;;;;;4905720;29;20043;-79
2023/06/27 00:56:28;;;;;;;6.82;3.50;;;;;;;;;;4896604;29;20039;-78
2023/06/27 00:58:57;;;;;;;8.20;4.32;;;;;;;;;;4905604;28;20244;-78
2023/06/27 01:01:23;;;;;;;8.82;4.22;;;;;;;;;;4924722;28;20066;-79
2023/06/27 01:03:49;;;;;;;10.07;4.43;;;;;;;;;;4907384;28;20043;-78
2023/06/27 01:06:19;;;;;;;10.23;4.43;;;;;;;;;;4905401;28;20047;-77
2023/06/27 01:08:48;;;;;;;6.70;4.00;;;;;;;;;;4905830;29;20054;-79
2023/06/27 01:11:17;;;;;;;9.63;4.20;;;;;;;;;;4904661;28;20166;-78
2023/06/27 01:13:48;;;;;;;10.95;4.53;;;;;;;;;;4906643;29;20042;-79
2023/06/27 01:16:15;;;;;;;16.05;4.65;;;;;;;;;;4906821;29;20053;-77
2023/06/27 01:18:41;;;;;;;9.32;4.22;;;;;;;;;;4903130;29;20066;-77
2023/06/27 01:21:08;;;;;;;10.60;4.32;;;;;;;;;;4921494;28;20039;-78
2023/06/27 01:23:39;;;;;;;12.18;4.40;;;;;;;;;;4918199;28;20058;-78
2023/06/27 01:26:07;;;;;;;9.90;4.20;;;;;;;;;;4903663;29;21032;-79
2023/06/27 01:28:33;;;;;;;10.70;4.75;;;;;;;;;;4900441;29;20095;-78
2023/06/27 01:31:02;;;;;;;9.00;4.70;;;;;;;;;;4887446;29;20051;-79
2023/06/27 01:33:51;;;;;;;13.95;4.70;;;;;;;;;;4903510;28;20044;-78
2023/06/27 01:36:19;;;;;;;6.57;4.80;;;;;;;;;;4904229;29;20079;-78
2023/06/27 01:38:58;;;;;;;11.25;4.93;;;;;;;;;;4900158;29;20130;-78
2023/06/27 01:41:26;;;;;;;10.10;5.18;;;;;;;;;;4919769;28;20048;-79
2023/06/27 01:43:54;;;;;;;8.40;5.13;;;;;;;;;;4892672;29;20141;-78
2023/06/27 01:46:20;;;;;;;10.05;4.80;;;;;;;;;;4908592;28;20043;-78
2023/06/27 01:48:47;;;;;;;11.38;4.90;;;;;;;;;;4911450;28;20151;-79
2023/06/27 01:51:14;;;;;;;8.45;4.70;;;;;;;;;;4928317;28;20051;-78
2023/06/27 01:53:40;;;;;;;12.23;5.45;;;;;;;;;;4922997;29;20048;-77
2023/06/27 01:56:08;;;;;;;9.40;4.68;;;;;;;;;;4905246;28;20220;-77
2023/06/27 01:58:34;;;;;;;11.43;5.30;;;;;;;;;;4934051;28;20055;-77
2023/06/27 02:01:00;;;;;;;8.68;5.03;;;;;;;;;;4905090;28;20147;-78
2023/06/27 02:03:26;;;;;;;7.07;4.70;;;;;;;;;;4906589;28;20159;-79
2023/06/27 02:05:52;;;;;;;11.00;4.80;;;;;;;;;;4905343;28;20062;-79
2023/06/27 02:08:18;;;;;;;9.85;5.15;;;;;;;;;;4902645;28;22121;-79
2023/06/27 02:10:44;;;;;;;7.22;4.93;;;;;;;;;;4899015;29;20046;-80
2023/06/27 02:13:10;;;;;;;6.60;5.15;;;;;;;;;;4918497;28;20052;-78
2023/06/27 02:15:36;;;;;;;9.43;4.68;;;;;;;;;;4915084;28;20047;-78
2023/06/27 02:18:04;;;;;;;7.80;4.85;;;;;;;;;;4895860;28;20070;-78
2023/06/27 02:20:30;;;;;;;9.07;4.93;;;;;;;;;;4897169;29;20055;-77
2023/06/27 02:22:56;;;;;;;11.52;5.40;;;;;;;;;;4917426;28;20106;-78
2023/06/27 02:25:22;;;;;;;8.23;5.47;;;;;;;;;;4901645;28;23238;-78
2023/06/27 02:27:48;;;;;;;10.57;4.90;;;;;;;;;;4898816;28;20062;-78
2023/06/27 02:30:14;;;;;;;12.52;5.43;;;;;;;;;;4901432;29;20066;-80
2023/06/27 02:32:40;;;;;;;9.68;4.90;;;;;;;;;;4902431;28;20066;-79
2023/06/27 02:35:07;;;;;;;11.55;5.28;;;;;;;;;;4898681;28;20048;-79
2023/06/27 02:37:33;;;;;;;13.07;5.35;;;;;;;;;;4902657;28;20114;-79
2023/06/27 02:39:59;;;;;;;6.57;4.60;;;;;;;;;;4891579;28;20530;-79
2023/06/27 02:42:25;;;;;;;9.10;5.28;;;;;;;;;;4894091;28;20653;-79
2023/06/27 02:44:51;;;;;;;13.50;5.20;;;;;;;;;;4901319;28;20055;-79
2023/06/27 02:47:18;;;;;;;12.65;5.07;;;;;;;;;;4901038;28;20051;-79
2023/06/27 02:49:44;;;;;;;11.00;5.00;;;;;;;;;;4901541;28;20043;-79
2023/06/27 02:52:10;;;;;;;9.63;5.03;;;;;;;;;;4918636;28;20047;-79
2023/06/27 02:54:36;;;;;;;9.88;4.90;;;;;;;;;;4905880;28;20075;-79
2023/06/27 02:57:02;;;;;;;9.30;5.20;;;;;;;;;;4903303;28;20040;-78
2023/06/27 02:59:28;;;;;;;15.07;5.63;;;;;;;;;;4902027;28;20205;-78
2023/06/27 03:01:54;;;;;;;6.25;4.85;;;;;;;;;;4921581;28;20157;-79
2023/06/27 03:04:23;;;;;;;11.77;5.75;;;;;;;;;;4906029;28;20121;-78
2023/06/27 03:06:50;;;;;;;11.15;5.13;;;;;;;;;;4905226;28;20047;-79
2023/06/27 03:09:19;;;;;;;10.10;5.25;;;;;;;;;;4902232;28;20170;-79
2023/06/27 03:11:45;;;;;;;11.38;5.22;;;;;;;;;;4908620;29;20062;-79
2023/06/27 03:14:11;;;;;;;10.30;5.55;;;;;;;;;;4904196;28;20035;-77
2023/06/27 03:16:37;;;;;;;10.85;5.35;;;;;;;;;;4919757;28;20047;-79
2023/06/27 03:19:03;;;;;;;10.05;4.90;;;;;;;;;;4899468;29;20116;-78
2023/06/27 03:21:30;;;;;;;8.30;5.13;;;;;;;;;;4899703;28;20055;-78
2023/06/27 03:23:56;;;;;;;6.97;5.00;;;;;;;;;;4901806;28;20046;-79
2023/06/27 03:26:27;;;;;;;6.88;4.90;;;;;;;;;;4903447;28;20495;-79
2023/06/27 03:28:53;;;;;;;7.60;4.55;;;;;;;;;;4900181;28;20050;-79
2023/06/27 03:31:19;;;;;;;14.00;4.72;;;;;;;;;;4921065;28;22514;-79
2023/06/27 03:33:46;;;;;;;7.82;4.65;;;;;;;;;;4904352;28;20048;-77
2023/06/27 03:36:12;;;;;;;14.18;4.60;;;;;;;;;;4920370;28;20086;-80
2023/06/27 03:38:38;;;;;;;8.07;4.85;;;;;;;;;;4899701;28;20044;-80
2023/06/27 03:41:04;;;;;;;9.48;4.85;;;;;;;;;;4903920;28;20673;-80
2023/06/27 03:43:30;;;;;;;9.65;5.35;;;;;;;;;;4894015;28;20138;-79
2023/06/27 03:45:56;;;;;;;11.85;5.45;;;;;;;;;;4889828;28;20055;-79
2023/06/27 03:48:22;;;;;;;5.85;4.35;;;;;;;;;;4919946;28;20499;-79
2023/06/27 03:50:49;;;;;;;7.03;4.43;;;;;;;;;;4902974;29;20051;-80
2023/06/27 03:53:15;;;;;;;10.27;4.45;;;;;;;;;;4901511;28;20193;-78
2023/06/27 03:55:41;;;;;;;14.80;4.32;;;;;;;;;;4904677;29;20055;-79
2023/06/27 03:58:08;;;;;;;7.75;4.75;;;;;;;;;;4920937;28;20480;-79
2023/06/27 04:00:34;;;;;;;7.32;4.40;;;;;;;;;;4902088;29;22236;-78
2023/06/27 04:03:00;;;;;;;11.07;4.40;;;;;;;;;;4902866;28;20043;-79
2023/06/27 04:05:26;;;;;;;7.20;4.68;;;;;;;;;;4903348;29;20400;-78
2023/06/27 04:07:52;;;;;;;11.38;4.20;;;;;;;;;;4900600;28;20051;-78
2023/06/27 04:10:18;;;;;;;12.90;5.20;;;;;;;;;;4916515;28;20062;-79
2023/06/27 04:12:44;;;;;;;10.98;4.95;;;;;;;;;;4889698;28;20139;-80
2023/06/27 04:15:11;;;;;;;7.88;4.20;;;;;;;;;;4917905;28;20069;-79
2023/06/27 04:17:37;;;;;;;8.93;4.43;;;;;;;;;;4902152;29;20102;-79
2023/06/27 04:20:03;;;;;;;10.73;4.63;;;;;;;;;;4902767;28;20047;-79
2023/06/27 04:22:29;;;;;;;8.50;4.43;;;;;;;;;;4901985;29;20784;-78
2023/06/27 04:24:55;;;;;;;12.13;4.05;;;;;;;;;;4900508;28;20059;-78
2023/06/27 04:27:22;;;;;;;19.08;5.00;;;;;;;;;;4885749;29;20054;-79
2023/06/27 04:29:49;;;;;;;13.13;4.90;;;;;;;;;;4916175;28;20059;-79
2023/06/27 04:32:15;;;;;;;9.25;4.53;;;;;;;;;;4886572;29;20122;-79
2023/06/27 04:34:41;;;;;;;7.97;4.07;;;;;;;;;;4898355;29;20467;-79
2023/06/27 04:37:07;;;;;;;10.73;4.15;;;;;;;;;;4903125;29;20444;-79
2023/06/27 04:39:33;;;;;;;10.35;4.32;;;;;;;;;;4899230;29;20071;-79
2023/06/27 04:41:59;;;;;;;12.82;3.72;;;;;;;;;;4900367;29;20039;-79
2023/06/27 04:44:25;;;;;;;12.93;3.85;;;;;;;;;;4900479;29;20066;-79
2023/06/27 04:46:51;;;;;;;11.40;4.35;;;;;;;;;;4899586;28;20047;-79
2023/06/27 04:49:17;;;;;;;11.88;4.18;;;;;;;;;;4899497;29;20043;-78
2023/06/27 04:51:43;;;;;;;10.15;3.67;;;;;;;;;;4916428;28;20091;-78
2023/06/27 04:54:10;;;;;;;10.90;4.03;;;;;;;;;;4917656;28;20093;-79
2023/06/27 04:56:36;;;;;;;6.72;3.53;;;;;;;;;;4900934;28;20047;-80
2023/06/27 04:59:02;;;;;;;7.32;3.70;;;;;;;;;;4887377;29;20603;-79
2023/06/27 05:01:28;;;;;;;7.95;3.50;;;;;;;;;;4901523;28;20186;-79
2023/06/27 05:04:04;;;;;;;9.88;3.92;;;;;;;;;;4916915;28;20052;-78
2023/06/27 05:06:30;;;;;;;10.23;3.33;;;;;;;;;;4884290;29;20085;-78
2023/06/27 05:08:56;;;;;;;10.00;3.65;;;;;;;;;;4897625;29;20055;-78
2023/06/27 05:11:22;;;;;;;10.02;3.67;;;;;;;;;;4899858;29;20997;-78
2023/06/27 05:13:48;;;;;;;15.65;3.85;;;;;;;;;;4903106;29;20471;-80
2023/06/27 05:16:14;;;;;;;12.73;3.28;;;;;;;;;;4885527;29;20111;-80
2023/06/27 05:18:41;;;;;;;10.50;2.97;;;;;;;;;;4883336;29;20059;-79
2023/06/27 05:21:07;;;;;;;7.03;3.20;;;;;;;;;;4882464;29;20566;-80
2023/06/27 05:23:33;;;;;;;9.90;3.38;;;;;;;;;;4897096;29;20062;-80
2023/06/27 05:25:59;;;;;;;7.47;3.28;;;;;;;;;;4914637;28;20048;-79
2023/06/27 05:28:25;;;;;;;9.02;3.25;;;;;;;;;;4916093;28;20135;-79
2023/06/27 05:30:51;;;;;;;6.97;2.60;;;;;;;;;;4900317;28;20043;-79
2023/06/27 05:33:17;;;;;;;8.77;3.03;;;;;;;;;;4916427;28;20047;-79
2023/06/27 05:35:44;;;;;;;10.27;2.88;;;;;;;;;;4900225;28;21840;-80
2023/06/27 05:38:10;;;;;;;15.52;3.55;;;;;;;;;;4887451;29;20044;-80
2023/06/27 05:40:36;;;;;;;10.80;2.65;;;;;;;;;;4903129;28;20491;-76
2023/06/27 05:43:02;;;;;;;10.85;2.80;;;;;;;;;;4885646;28;20210;-76
2023/06/27 05:45:28;;;;;;;8.27;3.03;;;;;;;;;;4928517;28;20102;-76
2023/06/27 05:47:55;;;;;;;18.25;2.85;;;;;;;;;;4913063;28;20139;-80
2023/06/27 05:50:21;;;;;;;10.52;2.25;;;;;;;;;;4924281;28;20177;-79
2023/06/27 05:52:47;;;;;;;6.57;2.00;;;;;;;;;;4921620;28;20054;-79
2023/06/27 05:55:13;;;;;;;18.17;3.03;;;;;;;;;;4923664;28;20054;-79
2023/06/27 05:57:39;;;;;;;6.82;2.28;;;;;;;;;;4912018;28;20051;-80
2023/06/27 06:00:10;;;;;;;9.30;2.13;;;;;;;;;;4913660;29;20127;-80
2023/06/27 06:02:37;;;;;;;9.60;2.70;;;;;;;;;;4905792;28;20058;-76
2023/06/27 06:05:04;;;;;;;7.65;2.40;;;;;;;;;;4899593;29;20070;-76
2023/06/27 06:07:31;;;;;;;13.73;2.42;;;;;;;;;;4916675;28;20051;-76
2023/06/27 06:09:57;;;;;;;14.27;3.25;;;;;;;;;;4899981;28;20039;-77
2023/06/27 06:12:23;;;;;;;10.10;2.40;;;;;;;;;;4900024;28;20039;-75
2023/06/27 06:14:49;;;;;;;9.13;2.85;;;;;;;;;;4899402;28;20051;-75
2023/06/27 06:17:15;;;;;;;12.60;2.88;;;;;;;;;;4884168;28;20062;-75
2023/06/27 06:19:41;;;;;;;10.38;2.75;;;;;;;;;;4898321;28;20051;-75
2023/06/27 06:22:08;;;;;;;13.10;2.40;;;;;;;;;;4899639;29;20562;-76
2023/06/27 06:24:34;;;;;;;8.15;1.90;;;;;;;;;;4902970;28;20048;-77
2023/06/27 06:27:00;;;;;;;10.52;2.10;;;;;;;;;;4903139;29;20098;-77
2023/06/27 06:29:26;;;;;;;6.47;2.20;;;;;;;;;;4917797;28;20483;-77
2023/06/27 06:31:52;;;;;;;9.13;2.47;;;;;;;;;;4897414;28;20047;-77
2023/06/27 06:34:18;;;;;;;6.35;1.77;;;;;;;;;;4898296;28;20073;-76
2023/06/27 06:36:44;;;;;;;7.88;2.30;;;;;;;;;;4898923;28;20039;-77
2023/06/27 06:39:10;;;;;;;7.15;1.88;;;;;;;;;;4898847;29;20120;-77
2023/06/27 06:41:36;;;;;;;5.57;1.90;;;;;;;;;;4899671;29;20043;-77
2023/06/27 06:44:02;;;;;;;8.15;2.45;;;;;;;;;;4899259;28;20134;-78
2023/06/27 06:46:29;;;;;;;4.65;2.03;;;;;;;;;;4899555;29;20062;-76
2023/06/27 06:48:55;;;;;;;7.32;1.70;;;;;;;;;;4882864;28;20047;-77
2023/06/27 06:51:22;;;;;;;4.35;1.65;;;;;;;;;;4892898;28;20051;-77
2023/06/27 06:53:49;;;;;;;8.02;1.80;;;;;;;;;;4898402;29;20056;-77
2023/06/27 06:56:15;;;;;;;8.45;1.42;;;;;;;;;;4896924;28;21233;-77
2023/06/27 06:58:41;;;;;;;9.75;2.08;;;;;;;;;;4896515;29;20157;-76
2023/06/27 07:01:07;;;;;;;4.88;1.50;;;;;;;;;;4896108;28;20406;-77
2023/06/27 07:03:34;;;;;;;2.92;1.30;;;;;;;;;;4901250;29;20059;-77
2023/06/27 07:06:00;;;;;;;6.00;1.48;;;;;;;;;;4902764;28;20696;-76
2023/06/27 07:08:26;;;;;;;4.43;1.02;;;;;;;;;;4898892;28;20134;-77
2023/06/27 07:10:52;;;;;;;16.00;1.42;;;;;;;;;;4918159;28;20047;-77
2023/06/27 07:13:18;;;;;;;8.15;1.65;;;;;;;;;;4898757;28;20052;-75
2023/06/27 07:15:44;;;;;;;5.05;1.50;;;;;;;;;;4914728;28;20047;-76
2023/06/27 07:18:11;;;;;;;9.02;1.10;;;;;;;;;;4885459;28;20060;-75
2023/06/27 07:20:37;;;;;;;7.38;1.40;;;;;;;;;;4895829;28;20061;-77
2023/06/27 07:23:03;;;;;;;5.38;1.13;;;;;;;;;;4917084;28;20044;-76
2023/06/27 07:25:29;;;;;;;8.60;1.33;;;;;;;;;;4900604;29;20185;-75
2023/06/27 07:27:55;;;;;;;6.80;1.50;;;;;;;;;;4878720;28;20056;-76
2023/06/27 07:30:21;;;;;;;6.85;1.27;;;;;;;;;;4898722;29;20047;-76
2023/06/27 07:32:47;;;;;;;6.25;1.40;;;;;;;;;;4913138;28;20123;-76
2023/06/27 07:35:13;;;;;;;8.75;1.40;;;;;;;;;;4898668;28;20047;-76
2023/06/27 07:37:39;;;;;;;6.55;1.30;;;;;;;;;;4898763;28;20043;-77
2023/06/27 07:40:07;;;;;;;4.90;1.73;;;;;;;;;;4900907;29;20107;-76
2023/06/27 07:42:33;;;;;;;5.53;1.40;;;;;;;;;;4915813;28;20050;-77
2023/06/27 07:44:59;;;;;;;4.88;1.10;;;;;;;;;;4901023;29;20051;-77
2023/06/27 07:47:25;;;;;;;2.97;1.08;;;;;;;;;;4896367;29;20095;-77
2023/06/27 07:49:51;;;;;;;5.35;1.10;;;;;;;;;;4900553;28;20118;-77
2023/06/27 07:52:18;;;;;;;7.10;1.48;;;;;;;;;;4895721;29;20061;-77
2023/06/27 07:54:44;;;;;;;4.57;1.48;;;;;;;;;;4900667;28;20058;-77
2023/06/27 07:57:10;;;;;;;3.05;0.98;;;;;;;;;;4900692;29;20054;-77
2023/06/27 07:59:36;;;;;;;5.45;1.30;;;;;;;;;;4901850;28;20135;-76
2023/06/27 08:02:02;;;;;;;7.43;1.23;;;;;;;;;;4918694;28;20570;-77
2023/06/27 08:04:28;;;;;;;5.13;1.17;;;;;;;;;;4901105;28;20067;-75
2023/06/27 08:06:54;;;;;;;4.00;1.20;;;;;;;;;;4907169;29;20039;-74
2023/06/27 08:09:21;;;;;;;7.78;1.30;;;;;;;;;;4908078;28;20038;-76
2023/06/27 08:11:47;;;;;;;18.67;1.58;;;;;;;;;;4905963;29;20113;-76
2023/06/27 08:14:13;;;;;;;21.50;1.65;;;;;;;;;;4907839;28;20051;-77
2023/06/27 08:16:39;;;;;;;4.15;1.20;;;;;;;;;;4905318;29;20035;-76
2023/06/27 08:19:06;;;;;;;5.00;0.95;;;;;;;;;;4904569;28;20135;-77
2023/06/27 08:21:32;;;;;;;6.80;1.17;;;;;;;;;;4917526;28;20063;-77
2023/06/27 08:23:58;;;;;;;6.35;1.75;;;;;;;;;;4904763;29;20039;-73
2023/06/27 08:26:24;;;;;;;5.35;1.17;;;;;;;;;;4917678;28;20049;-74
2023/06/27 08:28:51;;;;;;;4.97;1.40;;;;;;;;;;4904239;29;20094;-78
2023/06/27 08:31:17;;;;;;;5.53;1.30;;;;;;;;;;4903311;29;20131;-81
2023/06/27 08:33:43;;;;;;;5.22;1.17;;;;;;;;;;4903269;29;20043;-79
2023/06/27 08:36:09;;;;;;;6.13;1.42;;;;;;;;;;4902208;29;20059;-80
2023/06/27 08:38:36;;;;;;;10.02;2.28;;;;;;;;;;4901170;28;20126;-78
2023/06/27 08:41:03;;;;;;;4.90;1.02;;;;;;;;;;4899366;29;20483;-77
2023/06/27 08:43:29;;;;;;;6.35;1.30;;;;;;;;;;4913089;28;22060;-78
2023/06/27 08:45:57;;;;;;;7.35;1.67;;;;;;;;;;4914584;28;20068;-78
2023/06/27 08:48:23;;;;;;;4.72;1.33;;;;;;;;;;4900504;28;20055;-79
2023/06/27 08:50:53;;;;;;;3.70;1.33;;;;;;;;;;4917205;28;20058;-78
2023/06/27 08:53:22;;;;;;;5.07;1.00;;;;;;;;;;4896082;28;20060;-79
2023/06/27 08:55:48;;;;;;;8.52;1.80;;;;;;;;;;4911543;28;20047;-80
2023/06/27 08:58:15;;;;;;;4.65;0.93;;;;;;;;;;4904716;28;20039;-81
2023/06/27 09:00:43;;;;;;;9.57;1.90;;;;;;;;;;4921318;28;20058;-79
2023/06/27 09:03:10;;;;;;;12.75;1.10;;;;;;;;;;4900761;28;20055;-79
2023/06/27 09:05:36;;;;;;;5.45;1.20;;;;;;;;;;4919770;28;20406;-80
2023/06/27 09:08:02;;;;;;;4.28;1.10;;;;;;;;;;4901747;29;20093;-80
2023/06/27 09:10:29;;;;;;;6.90;1.50;;;;;;;;;;4919380;28;20097;-80
2023/06/27 09:12:55;;;;;;;3.88;1.10;;;;;;;;;;4900882;28;20054;-79
2023/06/27 09:15:21;;;;;;;6.43;1.17;;;;;;;;;;4899712;28;20059;-79
2023/06/27 09:17:47;;;;;;;3.95;1.15;;;;;;;;;;4899843;28;20200;-79
2023/06/27 09:20:17;;;;;;;6.32;1.67;;;;;;;;;;4870071;29;20059;-80
2023/06/27 09:22:43;;;;;;;6.85;1.40;;;;;;;;;;4882295;29;20048;-79
2023/06/27 09:25:14;;;;;;;3.13;0.80;;;;;;;;;;4904365;29;20118;-79
2023/06/27 09:27:40;;;;;;;3.13;1.10;;;;;;;;;;4872127;29;20078;-80
2023/06/27 09:30:08;;;;;;;5.97;1.02;;;;;;;;;;4884633;29;20047;-80
2023/06/27 09:32:35;;;;;;;13.32;1.35;;;;;;;;;;4887528;29;20054;-79
2023/06/27 09:35:03;;;;;;;3.60;1.00;;;;;;;;;;4878191;29;20040;-80
2023/06/27 09:37:32;;;;;;;3.45;1.10;;;;;;;;;;4911903;29;20076;-79
2023/06/27 09:39:59;;;;;;;4.95;1.38;;;;;;;;;;4898475;29;20071;-80
2023/06/27 09:42:25;;;;;;;4.93;1.15;;;;;;;;;;4898050;29;20040;-81
2023/06/27 09:44:51;;;;;;;6.10;1.23;;;;;;;;;;4920639;29;20040;-80
2023/06/27 09:47:17;;;;;;;5.00;0.98;;;;;;;;;;4910662;29;21379;-82
2023/06/27 09:49:43;;;;;;;2.78;1.02;;;;;;;;;;4929761;29;20107;-82
2023/06/27 09:52:13;;;;;;;4.90;1.38;;;;;;;;;;4902380;29;20048;-81
2023/06/27 09:54:46;;;;;;;2.67;1.08;;;;;;;;;;4913266;29;22447;-80
2023/06/27 09:57:13;;;;;;;4.00;0.80;;;;;;;;;;4908078;29;20044;-80
2023/06/27 09:59:39;;;;;;;6.05;1.08;;;;;;;;;;4888513;29;20127;-81
2023/06/27 10:02:11;;;;;;;5.18;1.00;;;;;;;;;;4884146;29;20657;-80
2023/06/27 10:04:37;;;;;;;3.13;1.08;;;;;;;;;;4877708;29;20043;-80
2023/06/27 10:07:04;;;;;;;5.07;0.85;;;;;;;;;;4883379;29;20120;-81
2023/06/27 10:09:30;;;;;;;4.43;0.90;;;;;;;;;;4899233;29;20126;-78
2023/06/27 10:11:56;;;;;;;2.63;1.08;;;;;;;;;;4894793;29;20044;-78
2023/06/27 10:14:22;;;;;;;6.38;1.35;;;;;;;;;;4873147;29;20479;-76
2023/06/27 10:16:49;;;;;;;6.20;1.17;;;;;;;;;;4878105;29;20050;-78
2023/06/27 10:19:15;;;;;;;4.07;1.27;;;;;;;;;;4885760;29;20070;-79
2023/06/27 10:21:42;;;;;;;3.15;1.00;;;;;;;;;;4918869;28;20130;-79
2023/06/27 10:24:09;;;;;;;3.95;1.23;;;;;;;;;;4899517;29;20039;-78
2023/06/27 10:26:35;;;;;;;5.13;1.10;;;;;;;;;;4912239;28;20075;-78
2023/06/27 10:29:13;;;;;;;3.15;1.00;;;;;;;;;;4899323;29;20047;-78
2023/06/27 10:31:49;;;;;;;5.93;0.80;;;;;;;;;;4901454;28;20047;-78
2023/06/27 10:34:20;;;;;;;3.65;1.23;;;;;;;;;;4905796;29;20143;-71
2023/06/27 10:36:52;;;;;;;6.68;1.27;;;;;;;;;;4905639;28;20146;-71
2023/06/27 10:39:29;;;;;;;3.20;0.90;;;;;;;;;;4915707;28;22381;-71
2023/06/27 10:42:15;;;;;;;9.60;1.10;;;;;;;;;;4914337;28;20134;-70
2023/06/27 10:45:00;;;;;;;6.03;1.25;;;;;;;;;;4915780;28;20202;-70
2023/06/27 10:47:27;;;;;;;5.25;1.10;;;;;;;;;;4916350;28;20055;-70
2023/06/27 10:49:54;;;;;;;4.90;1.40;;;;;;;;;;4915286;28;20763;-71
2023/06/27 10:52:21;;;;;;;5.00;0.80;;;;;;;;;;4898167;29;20058;-71
2023/06/27 10:55:07;;;;;;;5.00;1.33;;;;;;;;;;4915921;28;20129;-71
2023/06/27 10:57:39;;;;;;;10.82;1.42;;;;;;;;;;4917651;28;20102;-70
2023/06/27 11:00:13;;;;;;;9.98;1.20;;;;;;;;;;4917621;28;20054;-68
2023/06/27 11:02:42;;;;;;;5.25;1.10;;;;;;;;;;4920243;28;20050;-72
2023/06/27 11:05:16;;;;;;;4.15;1.10;;;;;;;;;;4918597;28;20198;-73
2023/06/27 11:07:55;;;;;;;10.55;1.70;;;;;;;;;;4901976;28;20090;-73
2023/06/27 11:10:29;;;;;;;8.63;1.08;;;;;;;;;;4913794;28;20510;-73
2023/06/27 11:13:14;;;;;;;7.07;1.38;;;;;;;;;;4897405;29;20511;-73
2023/06/27 11:15:45;;;;;;;7.05;1.13;;;;;;;;;;4897647;28;22119;-73
2023/06/27 11:18:15;;;;;;;4.40;1.20;;;;;;;;;;4900185;28;20760;-72
2023/06/27 11:20:41;;;;;;;3.58;1.02;;;;;;;;;;4899018;28;20126;-72
2023/06/27 11:23:07;;;;;;;4.07;0.88;;;;;;;;;;4917952;28;20047;-76
2023/06/27 11:25:42;;;;;;;7.32;1.17;;;;;;;;;;4918566;28;20038;-75
2023/06/27 11:28:11;;;;;;;12.70;1.88;;;;;;;;;;4909107;28;20047;-72
2023/06/27 11:30:38;;;;;;;6.38;1.63;;;;;;;;;;4907084;28;22282;-72
2023/06/27 11:33:04;;;;;;;9.73;1.65;;;;;;;;;;4902407;29;20062;-71
2023/06/27 11:35:31;;;;;;;6.47;1.25;;;;;;;;;;4902180;28;20051;-71
2023/06/27 11:37:57;;;;;;;4.28;0.90;;;;;;;;;;4902403;28;20047;-71
2023/06/27 11:40:24;;;;;;;6.72;1.52;;;;;;;;;;4919400;28;20043;-72
2023/06/27 11:42:51;;;;;;;3.92;0.98;;;;;;;;;;4919188;28;20035;-72
2023/06/27 11:45:17;;;;;;;4.97;1.27;;;;;;;;;;4904094;28;20062;-72
2023/06/27 11:47:45;;;;;;;7.13;1.02;;;;;;;;;;4921978;28;20046;-72
2023/06/27 11:50:12;;;;;;;4.07;1.10;;;;;;;;;;4921805;28;20055;-71
2023/06/27 11:52:41;;;;;;;5.35;1.17;;;;;;;;;;4902029;28;20046;-71
2023/06/27 11:55:07;;;;;;;6.03;1.33;;;;;;;;;;4921132;28;20044;-71
2023/06/27 11:57:43;;;;;;;7.32;2.00;;;;;;;;;;4921080;28;20045;-71
2023/06/27 12:00:17;;;;;;;8.75;1.90;;;;;;;;;;4901945;29;20098;-71
2023/06/27 12:02:46;;;;;;;6.93;1.58;;;;;;;;;;4900185;29;20141;-71
2023/06/27 12:05:16;;;;;;;6.45;1.48;;;;;;;;;;4916221;28;20147;-71
2023/06/27 12:08:02;;;;;;;5.32;1.20;;;;;;;;;;4919266;28;20043;-71
2023/06/27 12:10:35;;;;;;;5.65;1.23;;;;;;;;;;4882054;29;22207;-72
2023/06/27 12:13:04;;;;;;;7.28;1.55;;;;;;;;;;4918247;28;20051;-71
2023/06/27 12:15:30;;;;;;;5.60;1.50;;;;;;;;;;4916858;28;20047;-71
2023/06/27 12:18:04;;;;;;;19.65;2.03;;;;;;;;;;4919547;28;20063;-73
2023/06/27 12:20:43;;;;;;;10.98;2.00;;;;;;;;;;4919666;28;20055;-72
2023/06/27 12:23:10;;;;;;;9.10;1.55;;;;;;;;;;4918965;28;20051;-72
2023/06/27 12:25:39;;;;;;;6.20;1.67;;;;;;;;;;4916023;28;20054;-72
2023/06/27 12:28:06;;;;;;;8.35;2.00;;;;;;;;;;4900314;28;20047;-72
2023/06/27 12:30:32;;;;;;;4.90;1.15;;;;;;;;;;4902660;28;20047;-72
2023/06/27 12:32:58;;;;;;;6.72;1.90;;;;;;;;;;4903570;28;20052;-71
2023/06/27 12:35:25;;;;;;;6.13;1.27;;;;;;;;;;4919364;28;20047;-72
2023/06/27 12:37:51;;;;;;;6.97;1.50;;;;;;;;;;4918664;28;20047;-72
2023/06/27 12:40:17;;;;;;;6.00;1.70;;;;;;;;;;4901825;28;20053;-71
2023/06/27 12:42:44;;;;;;;6.88;1.88;;;;;;;;;;4918707;28;20071;-72
2023/06/27 12:45:13;;;;;;;8.48;1.60;;;;;;;;;;4919411;28;20066;-73
2023/06/27 12:47:43;;;;;;;8.50;1.10;;;;;;;;;;4919527;28;20048;-73
2023/06/27 12:50:19;;;;;;;8.32;1.30;;;;;;;;;;4918848;28;20048;-78
2023/06/27 12:52:49;;;;;;;5.63;1.50;;;;;;;;;;4901187;29;20050;-78
2023/06/27 12:55:16;;;;;;;8.85;1.13;;;;;;;;;;4901534;29;20055;-78
2023/06/27 12:57:42;;;;;;;4.75;1.55;;;;;;;;;;4908373;28;20051;-80
2023/06/27 13:00:09;;;;;;;4.95;1.50;;;;;;;;;;4905246;29;20667;-78
2023/06/27 13:02:36;;;;;;;7.53;2.08;;;;;;;;;;4904271;29;20039;-78
2023/06/27 13:05:03;;;;;;;5.03;1.58;;;;;;;;;;4907687;29;20394;-77
2023/06/27 13:07:29;;;;;;;8.57;1.85;;;;;;;;;;4903128;29;20108;-77
2023/06/27 13:09:56;;;;;;;7.43;1.45;;;;;;;;;;4903272;29;20082;-77
2023/06/27 13:12:22;;;;;;;9.15;1.52;;;;;;;;;;4908272;28;20133;-77
2023/06/27 13:14:48;;;;;;;7.45;1.40;;;;;;;;;;4903742;29;20043;-77
2023/06/27 13:17:14;;;;;;;4.63;1.15;;;;;;;;;;4915460;28;20134;-77
2023/06/27 13:19:41;;;;;;;4.88;1.40;;;;;;;;;;4890546;28;21943;-77
2023/06/27 13:22:07;;;;;;;3.90;1.00;;;;;;;;;;4895130;29;20044;-77
2023/06/27 13:24:34;;;;;;;5.15;1.17;;;;;;;;;;4901597;28;20050;-76
2023/06/27 13:27:01;;;;;;;5.22;1.10;;;;;;;;;;4916999;28;20090;-77
2023/06/27 13:29:27;;;;;;;9.10;1.42;;;;;;;;;;4891364;28;20047;-77
2023/06/27 13:31:54;;;;;;;5.75;1.15;;;;;;;;;;4920306;28;20563;-78
2023/06/27 13:34:20;;;;;;;11.38;2.00;;;;;;;;;;4905939;28;20046;-77
2023/06/27 13:36:47;;;;;;;8.98;1.52;;;;;;;;;;4912268;29;20178;-78
2023/06/27 13:39:14;;;;;;;14.25;1.77;;;;;;;;;;4931933;28;20071;-77
2023/06/27 13:41:40;;;;;;;8.02;1.50;;;;;;;;;;4921257;28;20443;-78
2023/06/27 13:44:06;;;;;;;8.75;1.52;;;;;;;;;;4931473;28;20039;-76
2023/06/27 13:46:33;;;;;;;8.30;1.65;;;;;;;;;;4903709;29;20056;-76
2023/06/27 13:48:59;;;;;;;8.57;1.55;;;;;;;;;;4905661;28;20061;-79
2023/06/27 13:51:25;;;;;;;5.60;1.20;;;;;;;;;;4906157;28;20542;-78
2023/06/27 13:53:51;;;;;;;7.35;1.67;;;;;;;;;;4908666;28;20042;-78
2023/06/27 13:56:17;;;;;;;8.27;1.42;;;;;;;;;;4903799;28;20043;-78
2023/06/27 13:58:43;;;;;;;11.15;1.60;;;;;;;;;;4920949;28;20135;-79
2023/06/27 14:01:09;;;;;;;10.82;1.40;;;;;;;;;;4902132;28;20047;-78
2023/06/27 14:03:35;;;;;;;7.03;1.55;;;;;;;;;;4919494;28;20044;-77
2023/06/27 14:06:02;;;;;;;10.05;1.83;;;;;;;;;;4889504;28;20039;-78
2023/06/27 14:08:28;;;;;;;5.45;1.80;;;;;;;;;;4906904;29;20051;-79
2023/06/27 14:10:54;;;;;;;6.82;1.40;;;;;;;;;;4903310;28;20055;-78
2023/06/27 14:13:20;;;;;;;6.05;1.35;;;;;;;;;;4921510;28;20046;-77
2023/06/27 14:15:46;;;;;;;4.43;1.40;;;;;;;;;;4902814;28;20142;-79
2023/06/27 14:18:13;;;;;;;5.88;1.40;;;;;;;;;;4904149;28;20054;-78
2023/06/27 14:20:39;;;;;;;7.95;1.63;;;;;;;;;;4918049;28;20080;-77
2023/06/27 14:23:05;;;;;;;5.60;1.38;;;;;;;;;;4900807;28;20058;-77
2023/06/27 14:25:31;;;;;;;6.82;1.75;;;;;;;;;;4901460;28;20137;-78
2023/06/27 14:27:59;;;;;;;5.75;1.35;;;;;;;;;;4917865;28;20047;-77
2023/06/27 14:30:25;;;;;;;8.43;1.60;;;;;;;;;;4902014;28;21901;-77
2023/06/27 14:32:51;;;;;;;8.05;1.50;;;;;;;;;;4918121;28;20043;-78
2023/06/27 14:35:18;;;;;;;8.43;1.92;;;;;;;;;;4902133;29;20044;-79
2023/06/27 14:37:44;;;;;;;6.68;1.90;;;;;;;;;;4901659;29;20053;-78
2023/06/27 14:40:11;;;;;;;9.93;1.60;;;;;;;;;;4902235;29;20067;-79